Time;durP1;ratioP1;P1;durP2;ratioP2;P2;SDS_P1;SDS_P2;PMS_P1;PMS_P2;Temp;Humidity;BMP_temperature;BMP_pressure;BME280_temperature;BME280_humidity;BME280_pressure;Samples;Min_cycle;Max_cycle;Signal;HPM_P1;HPM_P2
2021/10/30 00:01:59;;;;;;;3.30;2.45;;;;;;;;;;5058474;28;20191;-78
2021/10/30 00:04:26;;;;;;;3.70;2.55;;;;;;;;;;5060900;28;20234;-78
2021/10/30 00:06:54;;;;;;;2.70;2.50;;;;;;;;;;5058064;28;20210;-78
2021/10/30 00:09:25;;;;;;;6.03;2.65;;;;;;;;;;5053688;28;20620;-79
2021/10/30 00:11:58;;;;;;;3.33;2.75;;;;;;;;;;5062232;28;20203;-79
2021/10/30 00:14:26;;;;;;;2.85;2.42;;;;;;;;;;5053729;28;20195;-78
2021/10/30 00:16:53;;;;;;;3.28;2.50;;;;;;;;;;5060152;28;20943;-78
2021/10/30 00:19:20;;;;;;;3.17;2.70;;;;;;;;;;5068645;28;20206;-79
2021/10/30 00:21:48;;;;;;;2.70;2.50;;;;;;;;;;5057560;28;20207;-79
2021/10/30 00:24:15;;;;;;;3.65;2.90;;;;;;;;;;5059320;28;20712;-77
2021/10/30 00:26:44;;;;;;;2.88;2.60;;;;;;;;;;5057712;28;20575;-78
2021/10/30 00:29:11;;;;;;;2.67;2.47;;;;;;;;;;5059298;28;20198;-77
2021/10/30 00:31:41;;;;;;;2.20;2.00;;;;;;;;;;5062187;28;20705;-78
2021/10/30 00:34:08;;;;;;;3.08;2.75;;;;;;;;;;5060056;28;20734;-77
2021/10/30 00:36:35;;;;;;;3.05;2.75;;;;;;;;;;5060643;28;20587;-78
2021/10/30 00:39:02;;;;;;;2.97;2.75;;;;;;;;;;5056948;28;20377;-78
2021/10/30 00:41:29;;;;;;;2.75;2.20;;;;;;;;;;5064221;28;20209;-77
2021/10/30 00:43:58;;;;;;;2.80;2.40;;;;;;;;;;5063530;28;20226;-77
2021/10/30 00:46:25;;;;;;;2.35;1.88;;;;;;;;;;5060545;28;20211;-77
2021/10/30 00:48:52;;;;;;;3.05;2.47;;;;;;;;;;5051060;28;20282;-77
2021/10/30 00:51:19;;;;;;;3.10;2.80;;;;;;;;;;5058427;28;20202;-76
2021/10/30 00:53:46;;;;;;;2.33;2.13;;;;;;;;;;5054845;28;20226;-77
2021/10/30 00:56:14;;;;;;;2.42;2.22;;;;;;;;;;5056923;28;20195;-74
2021/10/30 00:58:41;;;;;;;2.83;2.63;;;;;;;;;;5051236;28;20198;-77
2021/10/30 01:01:09;;;;;;;2.10;1.90;;;;;;;;;;5061532;28;20201;-78
2021/10/30 01:03:37;;;;;;;2.65;2.45;;;;;;;;;;5056546;28;20222;-78
2021/10/30 01:06:04;;;;;;;2.67;2.33;;;;;;;;;;5048281;28;20277;-77
2021/10/30 01:08:31;;;;;;;2.72;2.42;;;;;;;;;;5056430;28;20559;-78
2021/10/30 01:10:59;;;;;;;2.75;2.40;;;;;;;;;;5058105;28;20200;-78
2021/10/30 01:13:28;;;;;;;2.10;1.90;;;;;;;;;;5047931;28;20206;-77
2021/10/30 01:15:55;;;;;;;2.22;2.05;;;;;;;;;;5058182;28;20194;-78
2021/10/30 01:18:25;;;;;;;2.97;2.65;;;;;;;;;;5048373;28;20654;-78
2021/10/30 01:20:54;;;;;;;3.25;2.63;;;;;;;;;;5058207;28;20206;-77
2021/10/30 01:23:21;;;;;;;3.00;2.63;;;;;;;;;;5061257;28;20783;-79
2021/10/30 01:25:48;;;;;;;3.28;2.97;;;;;;;;;;5050910;28;20188;-79
2021/10/30 01:28:15;;;;;;;3.20;2.85;;;;;;;;;;5053004;28;20670;-79
2021/10/30 01:30:42;;;;;;;3.08;2.65;;;;;;;;;;5063435;28;20195;-78
2021/10/30 01:33:09;;;;;;;2.75;2.55;;;;;;;;;;5056705;28;20561;-79
2021/10/30 01:35:38;;;;;;;3.53;2.72;;;;;;;;;;5059721;28;20554;-78
2021/10/30 01:38:07;;;;;;;3.17;2.88;;;;;;;;;;5056866;28;20204;-77
2021/10/30 01:40:35;;;;;;;2.40;2.05;;;;;;;;;;5057161;28;20203;-78
2021/10/30 01:43:03;;;;;;;4.35;2.20;;;;;;;;;;5056668;28;20226;-77
2021/10/30 01:45:30;;;;;;;2.47;2.28;;;;;;;;;;5055528;28;20201;-78
2021/10/30 01:47:58;;;;;;;3.22;2.83;;;;;;;;;;5059869;28;20198;-78
2021/10/30 01:50:25;;;;;;;2.63;2.42;;;;;;;;;;5057491;28;20187;-78
2021/10/30 01:52:53;;;;;;;3.17;2.60;;;;;;;;;;5055460;28;20195;-79
2021/10/30 01:55:22;;;;;;;3.00;1.95;;;;;;;;;;5057649;28;20573;-78
2021/10/30 01:57:50;;;;;;;3.00;2.70;;;;;;;;;;5057840;28;20196;-77
2021/10/30 02:00:17;;;;;;;3.65;3.15;;;;;;;;;;5048006;28;20227;-78
2021/10/30 02:02:44;;;;;;;3.15;2.90;;;;;;;;;;5051949;28;20617;-78
2021/10/30 02:05:12;;;;;;;3.65;2.58;;;;;;;;;;5065467;28;20210;-78
2021/10/30 02:07:40;;;;;;;4.30;3.35;;;;;;;;;;5058485;28;20668;-78
2021/10/30 02:10:08;;;;;;;2.22;2.03;;;;;;;;;;5063426;28;20746;-78
2021/10/30 02:12:37;;;;;;;2.97;2.50;;;;;;;;;;5056090;28;20613;-78
2021/10/30 02:15:04;;;;;;;3.28;2.97;;;;;;;;;;5056862;28;20201;-77
2021/10/30 02:17:31;;;;;;;3.45;2.80;;;;;;;;;;5056717;28;20225;-77
2021/10/30 02:20:01;;;;;;;4.03;3.17;;;;;;;;;;5047936;28;20712;-79
2021/10/30 02:22:28;;;;;;;3.13;2.72;;;;;;;;;;5059334;28;20202;-82
2021/10/30 02:24:55;;;;;;;2.70;2.42;;;;;;;;;;5058610;28;20208;-82
2021/10/30 02:27:22;;;;;;;2.80;2.60;;;;;;;;;;5056449;28;20207;-82
2021/10/30 02:29:51;;;;;;;2.47;2.10;;;;;;;;;;5056738;28;20681;-81
2021/10/30 02:32:18;;;;;;;4.90;2.50;;;;;;;;;;5047686;28;20223;-82
2021/10/30 02:34:45;;;;;;;3.60;2.80;;;;;;;;;;5069717;28;20191;-83
2021/10/30 02:37:12;;;;;;;2.70;2.50;;;;;;;;;;5058780;28;20203;-82
2021/10/30 02:39:39;;;;;;;4.25;2.40;;;;;;;;;;5058492;28;20558;-79
2021/10/30 02:42:07;;;;;;;3.95;3.08;;;;;;;;;;5056667;28;20665;-81
2021/10/30 02:44:34;;;;;;;2.58;2.35;;;;;;;;;;5059472;28;20559;-81
2021/10/30 02:47:03;;;;;;;3.10;2.90;;;;;;;;;;5050776;28;20230;-82
2021/10/30 02:49:31;;;;;;;3.05;2.75;;;;;;;;;;5057993;28;20192;-81
2021/10/30 02:51:58;;;;;;;3.10;2.50;;;;;;;;;;5046211;28;20245;-82
2021/10/30 02:54:25;;;;;;;3.13;2.50;;;;;;;;;;5061168;28;20207;-77
2021/10/30 02:56:53;;;;;;;2.20;2.00;;;;;;;;;;5071665;28;20313;-77
2021/10/30 02:59:20;;;;;;;2.83;2.45;;;;;;;;;;5051398;28;20207;-77
2021/10/30 03:01:47;;;;;;;2.22;1.98;;;;;;;;;;5057376;28;20555;-78
2021/10/30 03:04:15;;;;;;;3.22;2.70;;;;;;;;;;5070649;28;20210;-79
2021/10/30 03:06:42;;;;;;;3.10;2.50;;;;;;;;;;5061103;28;20207;-79
2021/10/30 03:09:09;;;;;;;2.90;2.22;;;;;;;;;;5051702;28;20211;-78
2021/10/30 03:11:37;;;;;;;3.15;2.85;;;;;;;;;;5063346;28;20215;-78
2021/10/30 03:14:04;;;;;;;2.38;2.10;;;;;;;;;;5060109;28;20199;-77
2021/10/30 03:16:31;;;;;;;2.30;2.05;;;;;;;;;;5063586;28;20673;-77
2021/10/30 03:18:58;;;;;;;2.38;2.17;;;;;;;;;;5062014;28;20654;-77
2021/10/30 03:21:26;;;;;;;3.20;2.30;;;;;;;;;;5061780;28;20569;-78
2021/10/30 03:23:53;;;;;;;3.58;2.05;;;;;;;;;;5058789;28;20367;-77
2021/10/30 03:26:20;;;;;;;3.13;2.40;;;;;;;;;;5064238;28;20555;-77
2021/10/30 03:28:48;;;;;;;3.38;3.10;;;;;;;;;;5063322;28;20206;-78
2021/10/30 03:31:15;;;;;;;2.35;2.15;;;;;;;;;;5065923;28;20199;-77
2021/10/30 03:33:42;;;;;;;2.90;2.35;;;;;;;;;;5061315;28;20187;-79
2021/10/30 03:36:09;;;;;;;2.60;2.40;;;;;;;;;;5061397;28;20202;-77
2021/10/30 03:38:38;;;;;;;2.63;2.42;;;;;;;;;;5060845;28;20206;-79
2021/10/30 03:41:05;;;;;;;3.30;2.80;;;;;;;;;;5068315;28;20260;-77
2021/10/30 03:43:32;;;;;;;3.58;2.40;;;;;;;;;;5059433;28;20206;-78
2021/10/30 03:45:59;;;;;;;2.95;2.70;;;;;;;;;;5059432;28;20216;-77
2021/10/30 03:48:26;;;;;;;2.65;2.15;;;;;;;;;;5052301;28;20236;-79
2021/10/30 03:50:53;;;;;;;2.63;2.13;;;;;;;;;;5066500;28;20558;-77
2021/10/30 03:53:20;;;;;;;2.45;2.25;;;;;;;;;;5059401;28;20582;-79
2021/10/30 03:55:49;;;;;;;2.90;2.70;;;;;;;;;;5051284;28;20194;-78
2021/10/30 03:58:16;;;;;;;3.33;3.08;;;;;;;;;;5057400;28;20200;-78
2021/10/30 04:00:43;;;;;;;2.78;2.58;;;;;;;;;;5059139;28;20195;-78
2021/10/30 04:03:11;;;;;;;3.08;2.85;;;;;;;;;;5060822;28;20187;-79
2021/10/30 04:05:38;;;;;;;3.58;2.58;;;;;;;;;;5060006;28;20651;-78
2021/10/30 04:08:07;;;;;;;2.60;2.40;;;;;;;;;;5059344;28;20562;-77
2021/10/30 04:10:34;;;;;;;4.50;2.78;;;;;;;;;;5057928;28;20728;-78
2021/10/30 04:13:02;;;;;;;2.60;2.20;;;;;;;;;;5060172;28;20647;-78
2021/10/30 04:15:29;;;;;;;2.17;1.88;;;;;;;;;;5059707;28;20198;-77
2021/10/30 04:17:57;;;;;;;3.22;2.92;;;;;;;;;;5059997;28;20561;-78
2021/10/30 04:20:24;;;;;;;3.35;3.08;;;;;;;;;;5057774;28;20214;-77
2021/10/30 04:22:51;;;;;;;2.60;2.40;;;;;;;;;;5057872;28;20191;-80
2021/10/30 04:25:18;;;;;;;4.13;2.85;;;;;;;;;;5056450;28;20220;-78
2021/10/30 04:27:45;;;;;;;3.10;2.75;;;;;;;;;;5060361;28;20203;-78
2021/10/30 04:30:13;;;;;;;5.72;2.40;;;;;;;;;;5061032;28;20574;-77
2021/10/30 04:32:42;;;;;;;2.95;2.50;;;;;;;;;;5057075;28;20196;-77
2021/10/30 04:35:10;;;;;;;2.72;2.40;;;;;;;;;;5072029;28;20198;-77
2021/10/30 04:37:38;;;;;;;5.70;2.75;;;;;;;;;;5049860;28;20290;-76
2021/10/30 04:40:06;;;;;;;2.60;2.40;;;;;;;;;;5053987;28;20689;-77
2021/10/30 04:42:33;;;;;;;2.40;2.10;;;;;;;;;;5059714;28;20207;-77
2021/10/30 04:45:00;;;;;;;5.50;2.58;;;;;;;;;;5064672;28;20233;-77
2021/10/30 04:47:29;;;;;;;3.97;2.97;;;;;;;;;;5053128;28;20222;-77
2021/10/30 04:49:56;;;;;;;2.35;2.15;;;;;;;;;;5067160;28;20199;-76
2021/10/30 04:52:23;;;;;;;3.63;2.85;;;;;;;;;;5058400;28;20199;-79
2021/10/30 04:54:50;;;;;;;3.17;2.88;;;;;;;;;;5061641;28;20207;-80
2021/10/30 04:57:17;;;;;;;3.28;2.65;;;;;;;;;;5057180;28;20214;-76
2021/10/30 04:59:44;;;;;;;3.58;3.28;;;;;;;;;;5057286;28;20194;-77
2021/10/30 05:02:11;;;;;;;4.05;2.40;;;;;;;;;;5054122;28;20203;-77
2021/10/30 05:04:39;;;;;;;3.00;2.70;;;;;;;;;;5055887;28;20215;-78
2021/10/30 05:07:07;;;;;;;2.30;2.10;;;;;;;;;;5057677;28;20206;-77
2021/10/30 05:09:34;;;;;;;5.63;2.95;;;;;;;;;;5058915;28;20215;-78
2021/10/30 05:12:01;;;;;;;2.72;2.53;;;;;;;;;;5056270;28;20198;-77
2021/10/30 05:14:28;;;;;;;3.78;2.50;;;;;;;;;;5056833;28;20198;-78
2021/10/30 05:16:55;;;;;;;2.75;2.05;;;;;;;;;;5057441;28;20191;-79
2021/10/30 05:19:22;;;;;;;3.30;3.03;;;;;;;;;;5060132;28;20207;-78
2021/10/30 05:21:50;;;;;;;4.85;2.83;;;;;;;;;;5056460;28;20195;-77
2021/10/30 05:24:17;;;;;;;2.88;2.67;;;;;;;;;;5054964;28;20193;-76
2021/10/30 05:26:45;;;;;;;2.45;2.25;;;;;;;;;;5070115;28;20201;-78
2021/10/30 05:29:12;;;;;;;3.00;2.70;;;;;;;;;;5066395;28;20298;-79
2021/10/30 05:31:39;;;;;;;3.85;2.45;;;;;;;;;;5058799;28;20192;-78
2021/10/30 05:34:06;;;;;;;2.60;2.40;;;;;;;;;;5061925;28;20195;-79
2021/10/30 05:36:36;;;;;;;2.42;2.22;;;;;;;;;;5060093;28;20524;-77
2021/10/30 05:39:05;;;;;;;1.95;1.75;;;;;;;;;;5055623;28;20667;-77
2021/10/30 05:41:32;;;;;;;2.75;2.30;;;;;;;;;;5059315;28;20581;-79
2021/10/30 05:43:59;;;;;;;2.92;1.80;;;;;;;;;;5061496;28;20199;-77
2021/10/30 05:46:26;;;;;;;2.88;2.28;;;;;;;;;;5057660;28;20229;-79
2021/10/30 05:48:54;;;;;;;4.03;2.30;;;;;;;;;;5056737;28;20204;-77
2021/10/30 05:51:21;;;;;;;2.38;2.17;;;;;;;;;;5058296;28;20204;-77
2021/10/30 05:53:48;;;;;;;2.45;2.25;;;;;;;;;;5057800;28;20203;-77
2021/10/30 05:56:16;;;;;;;2.58;2.13;;;;;;;;;;5056546;28;20220;-78
2021/10/30 05:58:43;;;;;;;2.65;2.45;;;;;;;;;;5049952;28;20586;-77
2021/10/30 06:01:10;;;;;;;3.10;2.80;;;;;;;;;;5053936;28;20539;-77
2021/10/30 06:03:37;;;;;;;5.35;2.30;;;;;;;;;;5064795;28;20571;-77
2021/10/30 06:06:04;;;;;;;2.40;2.20;;;;;;;;;;5056150;28;20587;-77
2021/10/30 06:08:31;;;;;;;2.83;2.53;;;;;;;;;;5058465;28;20218;-79
2021/10/30 06:10:58;;;;;;;3.58;3.00;;;;;;;;;;5057126;28;20191;-78
2021/10/30 06:13:27;;;;;;;3.42;3.03;;;;;;;;;;5055499;28;20210;-76
2021/10/30 06:15:54;;;;;;;3.05;2.75;;;;;;;;;;5047672;28;20191;-78
2021/10/30 06:18:21;;;;;;;3.05;2.38;;;;;;;;;;5055677;28;20202;-78
2021/10/30 06:20:48;;;;;;;2.25;2.05;;;;;;;;;;5056158;28;20214;-77
2021/10/30 06:23:16;;;;;;;2.30;2.10;;;;;;;;;;5056512;28;20194;-78
2021/10/30 06:25:43;;;;;;;2.30;2.10;;;;;;;;;;5056481;28;20219;-77
2021/10/30 06:28:10;;;;;;;3.40;3.10;;;;;;;;;;5056199;28;20234;-79
2021/10/30 06:30:39;;;;;;;2.72;2.53;;;;;;;;;;5063496;28;20191;-79
2021/10/30 06:33:06;;;;;;;2.33;2.13;;;;;;;;;;5061989;28;20194;-77
2021/10/30 06:35:33;;;;;;;3.22;2.80;;;;;;;;;;5060285;28;20192;-78
2021/10/30 06:38:00;;;;;;;3.70;2.80;;;;;;;;;;5058019;28;20202;-76
2021/10/30 06:40:27;;;;;;;2.42;2.22;;;;;;;;;;5056489;28;20199;-77
2021/10/30 06:42:54;;;;;;;2.50;2.30;;;;;;;;;;5057398;28;20191;-76
2021/10/30 06:45:21;;;;;;;2.28;1.80;;;;;;;;;;5054715;28;20230;-80
2021/10/30 06:47:50;;;;;;;3.47;2.40;;;;;;;;;;5059001;28;20570;-79
2021/10/30 06:50:21;;;;;;;2.90;2.55;;;;;;;;;;5060007;28;20195;-77
2021/10/30 06:52:49;;;;;;;3.20;2.78;;;;;;;;;;5056571;28;20203;-76
2021/10/30 06:55:17;;;;;;;2.45;2.25;;;;;;;;;;5056166;28;20209;-78
2021/10/30 06:57:44;;;;;;;3.03;2.72;;;;;;;;;;5062059;28;20191;-79
2021/10/30 07:00:12;;;;;;;5.20;2.67;;;;;;;;;;5057616;28;20676;-75
2021/10/30 07:02:40;;;;;;;3.22;2.92;;;;;;;;;;5058601;28;20200;-78
2021/10/30 07:05:09;;;;;;;2.50;1.90;;;;;;;;;;5061587;28;20215;-81
2021/10/30 07:07:37;;;;;;;2.70;2.50;;;;;;;;;;5058690;28;20207;-77
2021/10/30 07:10:04;;;;;;;2.22;1.95;;;;;;;;;;5066990;28;20215;-77
2021/10/30 07:12:33;;;;;;;3.80;2.60;;;;;;;;;;5055404;28;20199;-75
2021/10/30 07:15:00;;;;;;;2.10;1.90;;;;;;;;;;5057653;28;20424;-75
2021/10/30 07:17:27;;;;;;;2.90;2.70;;;;;;;;;;5060013;28;20203;-76
2021/10/30 07:19:55;;;;;;;2.10;1.88;;;;;;;;;;5051708;28;20188;-77
2021/10/30 07:22:23;;;;;;;2.50;2.30;;;;;;;;;;5060838;28;20293;-76
2021/10/30 07:24:50;;;;;;;2.55;2.30;;;;;;;;;;5060381;28;20191;-77
2021/10/30 07:27:18;;;;;;;3.45;2.47;;;;;;;;;;5070220;28;20238;-75
2021/10/30 07:29:47;;;;;;;2.33;2.08;;;;;;;;;;5077985;28;20198;-76
2021/10/30 07:32:14;;;;;;;2.80;2.60;;;;;;;;;;5061380;28;20214;-75
2021/10/30 07:34:41;;;;;;;2.80;2.50;;;;;;;;;;5063382;28;20203;-75
2021/10/30 07:37:08;;;;;;;2.03;1.83;;;;;;;;;;5061962;28;20202;-76
2021/10/30 07:39:36;;;;;;;3.08;2.78;;;;;;;;;;5054010;28;20207;-76
2021/10/30 07:42:04;;;;;;;2.90;2.65;;;;;;;;;;5055507;28;20203;-76
2021/10/30 07:44:31;;;;;;;3.50;2.25;;;;;;;;;;5055595;28;20229;-76
2021/10/30 07:46:58;;;;;;;2.63;2.20;;;;;;;;;;5059156;28;20597;-75
2021/10/30 07:49:25;;;;;;;2.47;2.20;;;;;;;;;;5059404;28;20190;-75
2021/10/30 07:51:52;;;;;;;2.53;2.33;;;;;;;;;;5055995;28;20207;-75
2021/10/30 07:54:19;;;;;;;3.83;2.50;;;;;;;;;;5058657;28;20209;-77
2021/10/30 07:56:47;;;;;;;2.50;2.30;;;;;;;;;;5061540;28;20191;-76
2021/10/30 07:59:14;;;;;;;3.00;2.60;;;;;;;;;;5061530;28;20192;-75
2021/10/30 08:01:42;;;;;;;1.95;1.75;;;;;;;;;;5061802;28;20216;-77
2021/10/30 08:04:09;;;;;;;3.35;2.95;;;;;;;;;;5064447;28;20199;-75
2021/10/30 08:06:36;;;;;;;6.97;2.17;;;;;;;;;;5058386;28;20225;-75
2021/10/30 08:09:03;;;;;;;2.08;1.88;;;;;;;;;;5058173;28;20219;-75
2021/10/30 08:11:30;;;;;;;2.83;2.10;;;;;;;;;;5057869;28;20195;-76
2021/10/30 08:13:58;;;;;;;2.47;2.15;;;;;;;;;;5055753;28;20199;-77
2021/10/30 08:16:25;;;;;;;2.10;1.90;;;;;;;;;;5058250;28;20199;-77
2021/10/30 08:18:52;;;;;;;2.65;2.05;;;;;;;;;;5060623;28;20191;-75
2021/10/30 08:21:20;;;;;;;4.68;2.40;;;;;;;;;;5058092;28;20198;-76
2021/10/30 08:23:49;;;;;;;2.70;2.50;;;;;;;;;;5056904;28;20290;-76
2021/10/30 08:26:16;;;;;;;4.35;2.95;;;;;;;;;;5058480;28;20221;-75
2021/10/30 08:28:43;;;;;;;2.55;2.17;;;;;;;;;;5068071;28;20202;-75
2021/10/30 08:31:11;;;;;;;3.28;2.90;;;;;;;;;;5066399;28;20198;-76
2021/10/30 08:33:38;;;;;;;3.13;2.67;;;;;;;;;;5071645;28;20199;-75
2021/10/30 11:41:34;;;;;;;2.25;2.05;;;;;;;;;;5055309;28;20232;-73
2021/10/30 11:44:03;;;;;;;2.85;1.52;;;;;;;;;;5056953;28;20215;-75
2021/10/30 12:03:05;;;;;;;2.95;2.47;;;;;;;;;;5043383;28;20214;-75
2021/10/30 12:05:34;;;;;;;2.65;2.45;;;;;;;;;;5050308;28;20218;-76
2021/10/30 12:08:04;;;;;;;4.05;2.55;;;;;;;;;;5052391;28;20226;-75
2021/10/30 12:10:31;;;;;;;2.13;1.95;;;;;;;;;;5050365;28;20203;-75
2021/10/30 12:13:06;;;;;;;2.50;2.30;;;;;;;;;;5048132;28;20195;-77
2021/10/30 12:15:33;;;;;;;7.30;2.28;;;;;;;;;;5048344;28;20558;-76
2021/10/30 12:18:00;;;;;;;3.13;2.63;;;;;;;;;;5047844;28;20203;-77
2021/10/30 12:20:29;;;;;;;2.95;2.67;;;;;;;;;;5051554;28;20200;-75
2021/10/30 12:22:59;;;;;;;2.92;2.35;;;;;;;;;;5052861;28;20203;-78
2021/10/30 12:25:27;;;;;;;2.30;2.10;;;;;;;;;;5052259;28;20208;-78
2021/10/30 12:27:55;;;;;;;2.90;1.85;;;;;;;;;;5051541;28;20200;-76
2021/10/30 12:30:23;;;;;;;4.22;2.70;;;;;;;;;;5052497;28;20207;-76
2021/10/30 12:32:50;;;;;;;3.83;2.35;;;;;;;;;;5051798;28;20591;-76
2021/10/30 12:35:20;;;;;;;2.13;1.90;;;;;;;;;;5053194;28;20195;-76
2021/10/30 12:37:48;;;;;;;2.40;2.20;;;;;;;;;;5051343;28;20203;-76
2021/10/30 12:40:16;;;;;;;3.17;2.63;;;;;;;;;;5034521;28;20207;-76
2021/10/30 12:42:44;;;;;;;2.53;2.33;;;;;;;;;;5054934;28;20195;-76
2021/10/30 12:45:11;;;;;;;2.40;2.20;;;;;;;;;;5053694;28;20196;-75
2021/10/30 12:47:40;;;;;;;2.97;2.08;;;;;;;;;;5052256;28;20223;-75
2021/10/30 12:50:10;;;;;;;2.00;1.80;;;;;;;;;;5054656;28;20195;-76
2021/10/30 12:52:41;;;;;;;3.88;2.28;;;;;;;;;;5052884;28;20282;-76
2021/10/30 12:55:13;;;;;;;2.10;1.88;;;;;;;;;;5053630;28;20203;-76
2021/10/30 12:57:41;;;;;;;2.50;2.30;;;;;;;;;;5045812;28;20203;-75
2021/10/30 13:00:11;;;;;;;2.33;1.95;;;;;;;;;;5048493;28;20221;-76
2021/10/30 13:02:39;;;;;;;3.00;2.50;;;;;;;;;;5041222;28;20251;-77
2021/10/30 13:05:16;;;;;;;2.88;2.67;;;;;;;;;;5038315;28;20464;-77
2021/10/30 13:07:45;;;;;;;3.47;2.22;;;;;;;;;;5048556;28;20218;-76
2021/10/30 13:10:15;;;;;;;3.53;1.85;;;;;;;;;;5051412;28;20620;-75
2021/10/30 13:12:42;;;;;;;1.90;1.80;;;;;;;;;;5051162;28;20192;-76
2021/10/30 13:15:10;;;;;;;4.18;2.03;;;;;;;;;;5052317;28;20668;-78
2021/10/30 13:17:37;;;;;;;4.22;1.90;;;;;;;;;;5052183;28;20230;-76
2021/10/30 13:20:05;;;;;;;2.50;2.30;;;;;;;;;;5044104;28;20262;-77
2021/10/30 13:22:32;;;;;;;4.50;2.53;;;;;;;;;;5043739;28;20210;-74
2021/10/30 13:24:59;;;;;;;2.40;2.20;;;;;;;;;;5046968;28;20204;-76
2021/10/30 13:27:29;;;;;;;3.20;2.78;;;;;;;;;;5045522;28;20227;-75
2021/10/30 13:29:57;;;;;;;3.00;1.90;;;;;;;;;;5049311;28;20672;-75
2021/10/30 13:32:24;;;;;;;3.13;1.95;;;;;;;;;;5047649;28;20196;-75
2021/10/30 13:34:51;;;;;;;5.35;1.98;;;;;;;;;;5048360;28;20199;-76
2021/10/30 13:37:19;;;;;;;1.60;1.50;;;;;;;;;;5046606;28;20202;-77
2021/10/30 13:39:46;;;;;;;3.10;2.80;;;;;;;;;;5047064;28;20199;-75
2021/10/30 13:42:14;;;;;;;2.67;2.35;;;;;;;;;;5045129;28;20253;-76
2021/10/30 13:44:42;;;;;;;2.20;1.50;;;;;;;;;;5049235;28;20286;-75
2021/10/30 13:47:09;;;;;;;2.08;1.95;;;;;;;;;;5038443;28;20212;-76
2021/10/30 13:49:36;;;;;;;2.65;2.20;;;;;;;;;;5043630;28;20214;-76
2021/10/30 13:52:04;;;;;;;2.40;2.00;;;;;;;;;;5050407;28;20188;-75
2021/10/30 13:54:31;;;;;;;2.13;1.92;;;;;;;;;;5047037;28;20204;-75
2021/10/30 13:56:59;;;;;;;2.50;2.30;;;;;;;;;;5045811;28;20192;-76
2021/10/30 13:59:26;;;;;;;3.33;2.20;;;;;;;;;;5042540;28;20805;-76
2021/10/30 14:01:54;;;;;;;2.40;2.20;;;;;;;;;;5047765;28;20214;-77
2021/10/30 14:04:21;;;;;;;2.67;2.47;;;;;;;;;;5048371;28;20294;-75
2021/10/30 14:06:48;;;;;;;3.65;2.50;;;;;;;;;;5047897;28;20595;-76
2021/10/30 14:09:16;;;;;;;2.60;2.30;;;;;;;;;;5047564;28;20658;-75
2021/10/30 14:11:43;;;;;;;2.60;2.20;;;;;;;;;;5047221;28;20203;-75
2021/10/30 14:14:10;;;;;;;2.30;2.10;;;;;;;;;;5045605;28;20210;-75
2021/10/30 14:16:37;;;;;;;2.58;2.15;;;;;;;;;;5043977;28;20200;-75
2021/10/30 14:19:06;;;;;;;3.60;1.98;;;;;;;;;;5046256;28;20200;-75
2021/10/30 14:21:33;;;;;;;2.45;2.10;;;;;;;;;;5047670;28;20207;-75
2021/10/30 14:24:00;;;;;;;2.92;2.40;;;;;;;;;;5048994;28;21726;-76
2021/10/30 14:26:27;;;;;;;3.13;2.83;;;;;;;;;;5047136;28;20583;-76
2021/10/30 14:28:56;;;;;;;2.33;1.65;;;;;;;;;;5047278;28;20195;-78
2021/10/30 14:31:23;;;;;;;3.20;2.00;;;;;;;;;;5046787;28;20663;-77
2021/10/30 14:33:50;;;;;;;2.80;2.30;;;;;;;;;;5048520;28;20196;-75
2021/10/30 14:36:19;;;;;;;4.68;2.47;;;;;;;;;;5047498;28;20204;-75
2021/10/30 14:38:46;;;;;;;4.82;1.85;;;;;;;;;;5045651;28;20203;-74
2021/10/30 14:41:13;;;;;;;2.25;2.03;;;;;;;;;;5045284;28;20204;-75
2021/10/30 14:43:41;;;;;;;2.95;2.58;;;;;;;;;;5048528;28;20287;-74
2021/10/30 14:46:08;;;;;;;2.97;2.30;;;;;;;;;;5046283;28;20215;-76
2021/10/30 14:48:38;;;;;;;1.98;1.80;;;;;;;;;;5047984;28;20587;-75
2021/10/30 14:51:05;;;;;;;4.10;2.38;;;;;;;;;;5053120;28;20203;-76
2021/10/30 14:53:33;;;;;;;2.72;2.20;;;;;;;;;;5051146;28;20208;-75
2021/10/30 14:56:00;;;;;;;3.10;2.20;;;;;;;;;;5047065;28;20702;-75
2021/10/30 14:58:27;;;;;;;3.58;2.03;;;;;;;;;;5051060;28;20659;-74
2021/10/30 15:00:55;;;;;;;2.15;1.95;;;;;;;;;;5049009;28;20625;-76
2021/10/30 15:03:23;;;;;;;2.53;2.20;;;;;;;;;;5050608;28;20282;-74
2021/10/30 15:05:50;;;;;;;3.50;2.65;;;;;;;;;;5053089;28;20203;-76
2021/10/30 15:08:18;;;;;;;2.42;2.00;;;;;;;;;;5052746;28;20235;-75
2021/10/30 15:10:46;;;;;;;2.90;2.42;;;;;;;;;;5050810;28;20207;-77
2021/10/30 15:13:13;;;;;;;2.03;1.83;;;;;;;;;;5051401;28;20206;-76
2021/10/30 15:15:40;;;;;;;2.58;2.38;;;;;;;;;;5048659;28;20291;-77
2021/10/30 15:18:07;;;;;;;2.83;2.63;;;;;;;;;;5049234;28;20648;-77
2021/10/30 15:20:36;;;;;;;4.90;2.67;;;;;;;;;;5050964;28;20218;-75
2021/10/30 15:23:04;;;;;;;2.55;1.85;;;;;;;;;;5050929;28;20196;-77
2021/10/30 15:25:31;;;;;;;3.17;2.40;;;;;;;;;;5049444;28;20208;-75
2021/10/30 15:27:59;;;;;;;2.97;2.30;;;;;;;;;;5050889;28;20691;-75
2021/10/30 15:30:27;;;;;;;2.78;2.47;;;;;;;;;;5050251;28;20210;-76
2021/10/30 15:32:54;;;;;;;3.40;2.00;;;;;;;;;;5049447;28;20211;-75
2021/10/30 15:35:22;;;;;;;2.33;1.95;;;;;;;;;;5050845;28;20597;-74
2021/10/30 15:37:49;;;;;;;2.47;2.20;;;;;;;;;;5050935;28;20234;-76
2021/10/30 15:40:16;;;;;;;3.47;2.50;;;;;;;;;;5052046;28;20195;-77
2021/10/30 15:42:44;;;;;;;3.45;3.15;;;;;;;;;;5048720;28;20200;-76
2021/10/30 15:45:14;;;;;;;2.80;2.42;;;;;;;;;;5048985;28;20202;-77
2021/10/30 15:47:42;;;;;;;2.25;2.05;;;;;;;;;;5049379;28;20234;-76
2021/10/30 15:50:09;;;;;;;3.72;2.30;;;;;;;;;;5048579;28;20231;-76
2021/10/30 15:52:36;;;;;;;2.97;2.08;;;;;;;;;;5049873;28;20488;-73
2021/10/30 15:55:03;;;;;;;3.05;2.15;;;;;;;;;;5047731;28;20204;-75
2021/10/30 15:57:30;;;;;;;3.03;2.72;;;;;;;;;;5049766;28;20559;-76
2021/10/30 15:59:58;;;;;;;2.65;2.10;;;;;;;;;;5049809;28;20715;-77
2021/10/30 16:02:26;;;;;;;2.38;2.17;;;;;;;;;;5048715;28;20671;-76
2021/10/30 16:04:53;;;;;;;2.97;2.60;;;;;;;;;;5048821;28;20200;-76
2021/10/30 16:07:21;;;;;;;3.85;2.75;;;;;;;;;;5050027;28;20803;-76
2021/10/30 16:09:49;;;;;;;3.55;2.53;;;;;;;;;;5047350;28;20204;-76
2021/10/30 16:12:19;;;;;;;3.70;2.15;;;;;;;;;;5060339;28;20254;-76
2021/10/30 16:14:46;;;;;;;4.18;2.40;;;;;;;;;;5069213;28;20754;-76
2021/10/30 16:17:13;;;;;;;2.42;2.22;;;;;;;;;;5062960;28;20219;-76
2021/10/30 16:19:42;;;;;;;3.40;2.45;;;;;;;;;;5048283;28;20670;-75
2021/10/30 16:22:09;;;;;;;2.97;2.30;;;;;;;;;;5050735;28;20620;-76
2021/10/30 16:24:37;;;;;;;2.72;2.22;;;;;;;;;;5049042;28;20195;-76
2021/10/30 16:27:04;;;;;;;2.75;2.30;;;;;;;;;;5048813;28;20219;-75
2021/10/30 16:29:31;;;;;;;2.72;2.53;;;;;;;;;;5050202;28;20191;-75
2021/10/30 16:31:58;;;;;;;2.75;2.10;;;;;;;;;;5047674;28;20769;-75
2021/10/30 16:34:26;;;;;;;2.50;2.20;;;;;;;;;;5050447;28;20195;-76
2021/10/30 16:36:56;;;;;;;2.60;2.40;;;;;;;;;;5041814;28;20196;-75
2021/10/30 16:39:23;;;;;;;6.60;3.10;;;;;;;;;;5045035;28;20208;-74
2021/10/30 16:41:50;;;;;;;2.78;2.58;;;;;;;;;;5048643;28;20200;-74
2021/10/30 16:44:18;;;;;;;2.72;2.40;;;;;;;;;;5049355;28;20196;-76
2021/10/30 16:46:45;;;;;;;2.85;2.55;;;;;;;;;;5046604;28;20624;-76
2021/10/30 16:49:13;;;;;;;2.78;2.58;;;;;;;;;;5048130;28;20695;-74
2021/10/30 16:51:41;;;;;;;2.88;2.38;;;;;;;;;;5049284;28;20192;-77
2021/10/30 16:54:09;;;;;;;2.20;2.00;;;;;;;;;;5048344;28;20198;-75
2021/10/30 16:56:38;;;;;;;2.63;2.28;;;;;;;;;;5047913;28;20213;-75
2021/10/30 16:59:05;;;;;;;2.70;2.45;;;;;;;;;;5048546;28;20196;-75
2021/10/30 17:01:33;;;;;;;3.85;2.72;;;;;;;;;;5047260;28;20210;-76
2021/10/30 17:04:00;;;;;;;2.20;2.00;;;;;;;;;;5050245;28;20195;-75
2021/10/30 17:06:27;;;;;;;2.90;2.70;;;;;;;;;;5051096;28;20290;-75
2021/10/30 17:08:57;;;;;;;3.05;2.78;;;;;;;;;;5048865;28;20216;-75
2021/10/30 17:11:25;;;;;;;3.67;2.80;;;;;;;;;;5047434;28;20265;-78
2021/10/30 17:13:52;;;;;;;3.50;2.70;;;;;;;;;;5047594;28;20656;-75
2021/10/30 17:16:19;;;;;;;10.07;3.78;;;;;;;;;;5048059;28;20199;-74
2021/10/30 17:18:46;;;;;;;2.42;2.22;;;;;;;;;;5049196;28;20210;-74
2021/10/30 17:21:13;;;;;;;2.88;2.45;;;;;;;;;;5049185;28;20230;-75
2021/10/30 17:23:44;;;;;;;3.15;2.85;;;;;;;;;;5047863;28;20207;-75
2021/10/30 17:26:11;;;;;;;2.63;2.42;;;;;;;;;;5049344;28;20287;-75
2021/10/30 17:28:40;;;;;;;3.28;2.92;;;;;;;;;;5049237;28;20592;-74
2021/10/30 17:31:07;;;;;;;3.88;3.15;;;;;;;;;;5048391;28;20203;-76
2021/10/30 17:33:34;;;;;;;3.60;2.75;;;;;;;;;;5046894;28;20211;-77
2021/10/30 17:36:01;;;;;;;3.40;3.10;;;;;;;;;;5048434;28;20200;-75
2021/10/30 17:38:29;;;;;;;2.75;2.55;;;;;;;;;;5049422;28;20193;-74
2021/10/30 17:40:56;;;;;;;3.83;2.55;;;;;;;;;;5047833;28;20210;-75
2021/10/30 17:43:23;;;;;;;4.25;3.53;;;;;;;;;;5047695;28;20211;-75
2021/10/30 17:45:51;;;;;;;3.05;2.75;;;;;;;;;;5047904;28;20199;-75
2021/10/30 17:48:19;;;;;;;4.47;2.35;;;;;;;;;;5046479;28;20211;-75
2021/10/30 17:50:46;;;;;;;3.35;3.05;;;;;;;;;;5048762;28;20200;-75
2021/10/30 17:53:13;;;;;;;3.53;3.17;;;;;;;;;;5047092;28;20195;-75
2021/10/30 17:55:43;;;;;;;3.28;2.55;;;;;;;;;;5047855;28;20199;-75
2021/10/30 17:58:10;;;;;;;3.13;2.78;;;;;;;;;;5047347;28;20254;-76
2021/10/30 18:00:37;;;;;;;3.25;2.65;;;;;;;;;;5047300;28;20222;-76
2021/10/30 18:03:05;;;;;;;2.88;2.58;;;;;;;;;;5043618;28;20668;-75
2021/10/30 18:05:34;;;;;;;3.33;3.03;;;;;;;;;;5049073;28;20207;-73
2021/10/30 18:08:01;;;;;;;3.08;2.40;;;;;;;;;;5058527;28;20219;-76